Time;durP1;ratioP1;P1;durP2;ratioP2;P2;SDS_P1;SDS_P2;PMS_P1;PMS_P2;Temp;Humidity;BMP_temperature;BMP_pressure;BME280_temperature;BME280_humidity;BME280_pressure;Samples;Min_cycle;Max_cycle;Signal;HPM_P1;HPM_P2
2022/04/30 00:00:57;;;;;;;12.80;6.60;;;3.80;76.40;;;;;;5066748;28;20048;-67
2022/04/30 00:03:26;;;;;;;13.60;6.93;;;3.80;76.50;;;;;;5091404;28;20043;-67
2022/04/30 00:05:52;;;;;;;12.77;6.50;;;3.70;76.50;;;;;;5033635;28;20071;-67
2022/04/30 00:08:17;;;;;;;10.67;5.90;;;3.70;76.60;;;;;;5068276;28;20457;-67
2022/04/30 00:10:43;;;;;;;14.53;7.57;;;3.60;76.60;;;;;;5056571;28;20063;-67
2022/04/30 00:13:10;;;;;;;8.83;6.50;;;3.60;76.60;;;;;;5075552;28;20075;-67
2022/04/30 00:15:36;;;;;;;10.43;6.65;;;3.50;77.90;;;;;;5077886;28;20033;-67
2022/04/30 00:18:03;;;;;;;14.48;6.68;;;3.50;77.80;;;;;;5075374;28;20078;-67
2022/04/30 00:20:28;;;;;;;8.68;6.80;;;3.40;77.70;;;;;;5073792;28;20040;-67
2022/04/30 00:22:54;;;;;;;12.87;7.83;;;3.40;77.70;;;;;;5075780;28;20565;-67
2022/04/30 00:25:21;;;;;;;12.98;6.68;;;3.40;78.10;;;;;;5077887;28;20044;-67
2022/04/30 00:27:47;;;;;;;12.98;7.20;;;3.40;77.60;;;;;;5055105;28;20060;-67
2022/04/30 00:30:14;;;;;;;12.25;6.88;;;3.30;77.70;;;;;;5060619;28;20041;-67
2022/04/30 00:32:40;;;;;;;12.73;7.00;;;3.40;78.20;;;;;;5044243;28;20116;-67
2022/04/30 00:35:06;;;;;;;14.90;7.22;;;3.40;78.00;;;;;;5052786;28;20035;-67
2022/04/30 00:37:32;;;;;;;13.55;6.78;;;3.40;78.60;;;;;;5048348;28;20044;-67
2022/04/30 00:39:58;;;;;;;9.97;6.30;;;3.40;78.70;;;;;;5053992;28;20045;-67
2022/04/30 00:42:23;;;;;;;11.07;6.93;;;3.40;78.30;;;;;;5051027;28;20055;-67
2022/04/30 00:44:49;;;;;;;15.27;6.63;;;3.40;78.30;;;;;;5048202;28;20045;-67
2022/04/30 00:47:16;;;;;;;11.93;7.27;;;3.40;78.40;;;;;;5101005;28;20049;-67
2022/04/30 00:49:43;;;;;;;13.35;6.85;;;3.40;79.00;;;;;;5043009;28;20151;-65
2022/04/30 00:52:12;;;;;;;12.13;6.72;;;3.40;78.90;;;;;;5067947;28;20061;-65
2022/04/30 00:54:40;;;;;;;15.70;7.32;;;3.40;79.00;;;;;;5063746;28;20598;-64
2022/04/30 00:57:09;;;;;;;15.40;7.38;;;3.50;78.90;;;;;;5073875;28;20487;-65
2022/04/30 00:59:39;;;;;;;10.30;6.85;;;3.50;78.60;;;;;;5057360;28;20100;-65
2022/04/30 01:02:09;;;;;;;10.68;6.68;;;3.50;78.60;;;;;;5076115;28;20457;-65
2022/04/30 01:04:35;;;;;;;14.88;7.80;;;3.60;78.80;;;;;;5068382;28;20044;-65
2022/04/30 01:07:08;;;;;;;11.33;7.37;;;3.70;79.00;;;;;;5067294;28;20041;-65
2022/04/30 01:09:38;;;;;;;11.88;8.23;;;3.90;79.00;;;;;;5049794;28;20036;-65
2022/04/30 01:12:09;;;;;;;12.65;7.55;;;4.10;79.00;;;;;;5050577;28;20076;-65
2022/04/30 01:14:35;;;;;;;12.85;7.22;;;4.20;79.40;;;;;;5071509;28;20036;-67
2022/04/30 01:17:05;;;;;;;14.63;7.13;;;4.30;79.20;;;;;;5066823;28;20040;-67
2022/04/30 01:19:33;;;;;;;9.70;7.47;;;4.40;79.00;;;;;;5062323;28;20086;-67
2022/04/30 01:22:08;;;;;;;13.70;7.82;;;4.60;78.90;;;;;;5054808;28;20055;-67
2022/04/30 01:24:35;;;;;;;13.53;7.87;;;4.70;78.70;;;;;;5071248;28;20044;-67
2022/04/30 01:27:04;;;;;;;14.18;7.20;;;4.80;78.70;;;;;;5100142;28;20293;-67
2022/04/30 01:29:30;;;;;;;16.05;8.40;;;4.90;78.30;;;;;;5066159;28;20048;-67
2022/04/30 01:37:27;;;;;;;10.55;7.38;;;5.20;78.50;;;;;;5082093;28;20117;-67
2022/04/30 01:40:03;;;;;;;12.73;7.78;;;5.30;78.50;;;;;;5077125;28;20052;-67
2022/04/30 01:42:45;;;;;;;11.02;6.80;;;5.40;78.20;;;;;;5039549;28;20753;-67
2022/04/30 01:45:11;;;;;;;11.60;7.38;;;5.40;78.10;;;;;;5060459;28;20044;-67
2022/04/30 01:47:39;;;;;;;14.02;7.60;;;5.50;77.90;;;;;;5097924;28;20757;-67
2022/04/30 01:50:06;;;;;;;10.48;7.25;;;5.60;77.90;;;;;;5065168;28;20063;-67
2022/04/30 01:52:32;;;;;;;14.00;8.82;;;5.60;77.70;;;;;;5067907;28;20040;-65
2022/04/30 01:54:58;;;;;;;11.67;7.83;;;5.70;78.10;;;;;;5051288;28;20353;-66
2022/04/30 01:57:26;;;;;;;10.68;7.55;;;5.80;77.70;;;;;;5053670;28;20048;-66
2022/04/30 01:59:53;;;;;;;16.05;7.93;;;5.90;77.70;;;;;;5058776;28;20408;-66
2022/04/30 02:02:23;;;;;;;14.02;7.90;;;6.00;77.60;;;;;;5049814;28;20055;-66
2022/04/30 02:04:55;;;;;;;13.65;7.50;;;6.00;77.60;;;;;;5057227;28;20051;-66
2022/04/30 02:07:22;;;;;;;13.90;7.80;;;6.10;77.80;;;;;;5064021;28;20048;-66
2022/04/30 02:09:51;;;;;;;9.90;8.00;;;6.10;77.50;;;;;;5067574;28;20496;-66
2022/04/30 02:12:17;;;;;;;11.00;7.50;;;6.10;77.40;;;;;;5065560;28;20048;-66
2022/04/30 02:14:48;;;;;;;10.77;7.63;;;6.20;77.20;;;;;;5055036;28;20056;-66
2022/04/30 02:17:15;;;;;;;13.27;7.13;;;6.20;77.30;;;;;;5064739;28;20032;-66
2022/04/30 02:22:30;;;;;;;12.55;6.85;;;6.30;77.30;;;;;;5066415;28;20117;-66
2022/04/30 02:24:58;;;;;;;10.85;6.43;;;6.30;77.40;;;;;;5060091;28;20109;-66
2022/04/30 02:27:25;;;;;;;11.77;6.90;;;6.30;77.20;;;;;;5068726;28;20047;-66
2022/04/30 02:29:51;;;;;;;10.57;7.55;;;6.30;77.40;;;;;;5048491;28;20044;-66
2022/04/30 02:32:17;;;;;;;10.87;6.10;;;6.30;77.20;;;;;;5049207;28;20047;-66
2022/04/30 02:34:43;;;;;;;11.45;6.55;;;6.20;77.40;;;;;;5049197;28;20283;-66
2022/04/30 02:37:14;;;;;;;10.98;6.78;;;6.20;77.30;;;;;;5055775;28;20051;-66
2022/04/30 02:39:45;;;;;;;9.93;6.45;;;6.30;77.40;;;;;;5046185;28;20119;-66
2022/04/30 02:42:11;;;;;;;8.43;6.47;;;6.30;77.30;;;;;;5065058;28;20044;-66
2022/04/30 02:44:38;;;;;;;10.98;6.85;;;6.30;77.40;;;;;;5065557;28;20045;-66
2022/04/30 02:47:03;;;;;;;10.68;6.45;;;6.30;77.40;;;;;;5047187;28;20051;-66
2022/04/30 02:49:29;;;;;;;11.77;6.10;;;6.30;77.50;;;;;;5068147;28;20504;-66
2022/04/30 02:51:55;;;;;;;10.13;6.57;;;6.40;77.50;;;;;;5064247;28;20391;-66
2022/04/30 02:54:21;;;;;;;10.93;7.40;;;6.40;77.60;;;;;;5077168;28;20048;-66
2022/04/30 02:56:46;;;;;;;11.17;6.17;;;6.40;77.50;;;;;;5065479;28;20047;-66
2022/04/30 03:01:56;;;;;;;10.30;6.35;;;6.30;77.60;;;;;;5057884;28;20853;-66
2022/04/30 03:04:22;;;;;;;9.93;6.23;;;6.30;77.60;;;;;;5049500;28;20045;-66
2022/04/30 03:06:47;;;;;;;12.57;6.43;;;6.40;77.60;;;;;;5055211;28;20127;-66
2022/04/30 03:09:13;;;;;;;8.30;5.70;;;6.40;77.30;;;;;;5044823;28;20033;-66
2022/04/30 03:11:39;;;;;;;9.23;5.60;;;6.40;77.20;;;;;;5060846;28;20698;-66
2022/04/30 03:14:05;;;;;;;10.40;5.40;;;6.40;77.20;;;;;;5079849;28;20036;-66
2022/04/30 03:22:01;;;;;;;;;;;6.40;76.70;;;;;;5076299;28;20136;-66
2022/04/30 03:24:29;;;;;;;11.47;5.60;;;6.40;76.60;;;;;;5066425;28;20406;-66
2022/04/30 03:26:55;;;;;;;9.77;5.78;;;6.30;76.90;;;;;;5048984;28;20398;-66
2022/04/30 03:29:22;;;;;;;8.13;5.22;;;6.20;76.70;;;;;;5063129;28;20079;-66
2022/04/30 03:31:49;;;;;;;12.00;5.88;;;6.20;76.50;;;;;;5098474;28;20114;-66
2022/04/30 03:34:15;;;;;;;9.18;5.63;;;6.10;76.40;;;;;;5061151;28;20454;-66
2022/04/30 03:36:41;;;;;;;9.27;5.20;;;6.10;76.60;;;;;;5059572;28;20386;-66
2022/04/30 03:39:07;;;;;;;7.30;5.57;;;6.00;76.50;;;;;;5062671;28;20036;-66
2022/04/30 03:41:33;;;;;;;8.67;5.57;;;5.90;76.50;;;;;;5063647;28;20045;-66
2022/04/30 03:43:59;;;;;;;10.18;5.57;;;5.80;76.50;;;;;;5100568;28;20105;-66
2022/04/30 03:46:24;;;;;;;9.80;6.03;;;5.70;76.40;;;;;;5061281;28;20082;-66
2022/04/30 03:48:53;;;;;;;9.90;5.43;;;5.60;76.50;;;;;;5049741;28;20044;-66
2022/04/30 03:51:28;;;;;;;10.77;6.10;;;5.50;77.10;;;;;;5050431;28;20529;-66
2022/04/30 03:53:54;;;;;;;8.68;5.85;;;5.50;77.30;;;;;;5058051;28;20052;-66
2022/04/30 03:56:20;;;;;;;9.37;6.10;;;5.50;78.10;;;;;;5080219;28;20094;-66
2022/04/30 03:58:47;;;;;;;8.93;5.97;;;5.50;77.90;;;;;;5055432;28;20035;-66
2022/04/30 04:01:14;;;;;;;10.20;6.50;;;5.50;77.70;;;;;;5068720;28;20059;-66
2022/04/30 04:03:41;;;;;;;9.48;6.03;;;5.50;77.80;;;;;;5077388;28;20060;-66
2022/04/30 04:06:07;;;;;;;6.35;5.45;;;5.60;77.90;;;;;;5062853;28;20439;-66
2022/04/30 04:08:35;;;;;;;9.93;5.97;;;5.60;77.90;;;;;;5044815;28;20043;-66
2022/04/30 04:11:02;;;;;;;11.15;6.07;;;5.60;77.90;;;;;;5092026;28;20067;-66
2022/04/30 04:18:56;;;;;;;7.72;6.28;;;5.70;78.40;;;;;;5065745;28;20051;-66
2022/04/30 04:21:22;;;;;;;7.53;5.80;;;5.70;78.60;;;;;;5057672;28;20638;-66
2022/04/30 04:26:33;;;;;;;8.30;6.18;;;5.80;78.40;;;;;;5066715;28;20094;-66
2022/04/30 04:28:59;;;;;;;8.70;5.72;;;5.80;78.50;;;;;;5071514;28;20044;-66
2022/04/30 04:31:25;;;;;;;10.85;6.25;;;5.80;78.30;;;;;;5068099;28;20420;-66
2022/04/30 04:33:51;;;;;;;9.30;6.45;;;5.90;78.20;;;;;;5034659;28;20503;-66
2022/04/30 04:36:17;;;;;;;11.43;6.43;;;5.90;78.10;;;;;;5050889;28;20036;-66
2022/04/30 04:38:43;;;;;;;9.60;5.80;;;6.00;78.10;;;;;;5049182;28;20051;-66
2022/04/30 04:41:09;;;;;;;11.75;6.05;;;6.00;78.10;;;;;;5069452;28;20791;-66
2022/04/30 04:43:34;;;;;;;12.10;6.50;;;6.00;78.00;;;;;;5067306;28;20055;-66
2022/04/30 04:46:02;;;;;;;10.97;6.57;;;6.10;78.00;;;;;;5048405;28;20489;-66
2022/04/30 04:48:31;;;;;;;8.20;5.88;;;6.10;78.10;;;;;;5047464;28;20098;-66
2022/04/30 04:50:57;;;;;;;11.73;6.97;;;6.20;78.20;;;;;;5071038;28;20063;-66
2022/04/30 04:53:23;;;;;;;11.38;6.40;;;6.20;78.10;;;;;;5067852;28;20142;-66
2022/04/30 04:55:49;;;;;;;12.57;6.90;;;6.30;78.20;;;;;;5071367;28;20052;-66
2022/04/30 04:58:15;;;;;;;8.38;6.68;;;6.30;78.40;;;;;;5020780;28;20039;-66
2022/04/30 05:00:41;;;;;;;9.73;6.90;;;6.30;78.60;;;;;;5083593;28;20040;-66
2022/04/30 05:03:07;;;;;;;11.30;6.50;;;6.40;78.90;;;;;;5069522;28;20039;-66
2022/04/30 05:05:33;;;;;;;8.98;6.20;;;6.40;78.60;;;;;;5067466;28;20052;-66
2022/04/30 05:07:59;;;;;;;10.00;6.73;;;6.40;78.30;;;;;;5066103;28;20040;-66
2022/04/30 05:10:24;;;;;;;10.63;6.67;;;6.50;78.20;;;;;;5081737;28;20460;-66
2022/04/30 05:12:50;;;;;;;10.80;6.43;;;6.50;78.20;;;;;;5061042;28;20382;-66
2022/04/30 05:15:16;;;;;;;11.37;6.43;;;6.60;78.10;;;;;;5070679;28;20044;-66
2022/04/30 05:17:41;;;;;;;12.10;7.07;;;6.60;78.10;;;;;;5071886;28;20055;-66
2022/04/30 05:20:08;;;;;;;9.27;6.33;;;6.70;78.30;;;;;;5076740;28;21309;-66
2022/04/30 05:22:33;;;;;;;10.02;6.47;;;6.70;78.10;;;;;;5050345;28;20098;-66
2022/04/30 05:24:59;;;;;;;7.40;6.53;;;6.70;78.10;;;;;;5080135;28;20084;-66
2022/04/30 05:27:25;;;;;;;11.27;6.90;;;6.80;78.00;;;;;;5066116;28;20349;-66
2022/04/30 05:29:51;;;;;;;9.97;7.07;;;6.90;77.90;;;;;;5067443;28;20138;-66
2022/04/30 05:32:16;;;;;;;13.40;6.87;;;7.00;77.80;;;;;;5033870;28;20039;-66
2022/04/30 05:34:42;;;;;;;10.10;6.20;;;7.10;77.70;;;;;;5066482;28;20037;-66
2022/04/30 05:37:08;;;;;;;10.87;6.60;;;7.10;77.60;;;;;;5066501;28;20044;-66
2022/04/30 05:39:34;;;;;;;12.83;7.93;;;7.20;77.50;;;;;;5048858;28;20044;-66
2022/04/30 05:42:01;;;;;;;10.37;7.40;;;7.20;77.20;;;;;;5058342;28;20044;-66
2022/04/30 05:44:27;;;;;;;12.13;7.22;;;7.20;77.50;;;;;;5067087;28;20099;-66
2022/04/30 05:46:53;;;;;;;12.63;8.17;;;7.20;77.20;;;;;;5068797;28;20044;-66
2022/04/30 05:49:19;;;;;;;11.45;8.32;;;7.20;77.10;;;;;;5072170;28;20042;-66
2022/04/30 05:51:44;;;;;;;12.83;8.60;;;7.20;77.10;;;;;;5048477;28;20541;-66
2022/04/30 05:54:10;;;;;;;13.27;8.27;;;7.30;77.20;;;;;;5079494;28;20079;-66
2022/04/30 05:56:36;;;;;;;12.40;8.77;;;7.40;77.40;;;;;;5050571;28;20037;-66
2022/04/30 05:59:02;;;;;;;12.47;8.23;;;7.60;77.30;;;;;;5035702;28;20059;-66
2022/04/30 06:01:27;;;;;;;13.63;8.40;;;7.70;77.40;;;;;;5075622;28;20082;-66
2022/04/30 06:03:53;;;;;;;16.77;9.30;;;8.00;77.40;;;;;;5053493;28;20041;-66
2022/04/30 06:06:20;;;;;;;13.43;9.55;;;8.30;77.20;;;;;;5060007;28;20071;-66
2022/04/30 06:08:46;;;;;;;12.57;8.27;;;8.60;76.80;;;;;;5069985;28;20131;-66
2022/04/30 06:11:13;;;;;;;11.57;8.55;;;8.90;76.40;;;;;;5066385;28;20147;-66
2022/04/30 06:13:38;;;;;;;13.93;9.05;;;9.20;75.50;;;;;;5068166;28;20044;-66
2022/04/30 06:16:04;;;;;;;12.43;8.10;;;9.50;75.40;;;;;;5060238;28;20040;-66
2022/04/30 06:18:30;;;;;;;14.43;9.00;;;9.80;74.80;;;;;;5067757;28;20036;-66
2022/04/30 06:20:55;;;;;;;11.33;7.70;;;10.20;74.40;;;;;;5051309;28;20089;-67
2022/04/30 06:23:21;;;;;;;16.93;8.27;;;10.60;73.20;;;;;;5073764;28;20036;-67
2022/04/30 06:25:47;;;;;;;12.63;8.00;;;11.20;72.70;;;;;;5067119;28;20040;-67
2022/04/30 06:28:13;;;;;;;13.17;7.03;;;12.00;70.70;;;;;;5049612;28;20050;-67
2022/04/30 06:30:40;;;;;;;13.23;7.15;;;12.30;68.40;;;;;;5049183;28;20091;-67
2022/04/30 06:33:06;;;;;;;11.57;7.03;;;12.30;67.30;;;;;;5039273;28;20040;-67
2022/04/30 06:35:32;;;;;;;15.93;7.68;;;12.00;66.10;;;;;;5099636;28;20396;-67
2022/04/30 06:37:58;;;;;;;10.23;7.95;;;11.80;66.50;;;;;;5050339;28;20052;-67
2022/04/30 06:40:23;;;;;;;11.63;8.30;;;11.60;67.00;;;;;;5057980;28;20036;-67
2022/04/30 06:42:49;;;;;;;10.77;7.70;;;11.20;67.00;;;;;;5064763;28;20572;-67
2022/04/30 06:45:17;;;;;;;13.73;7.60;;;10.80;67.50;;;;;;5044199;28;20045;-67
2022/04/30 06:47:42;;;;;;;12.18;8.68;;;10.50;68.50;;;;;;5064441;28;20228;-67
2022/04/30 06:50:09;;;;;;;14.97;7.60;;;10.30;69.30;;;;;;5067317;28;20135;-67
2022/04/30 06:57:06;;;;;;;13.65;8.15;;;10.20;69.70;;;;;;5066700;28;20043;-67
2022/04/30 06:58:06;;;;;;;13.85;7.45;;;10.00;69.90;;;;;;5057216;28;21208;-67
2022/04/30 07:03:16;;;;;;;10.73;7.22;;;9.90;69.60;;;;;;5058267;28;20466;-67
2022/04/30 07:05:42;;;;;;;12.30;7.65;;;9.90;69.60;;;;;;5049492;28;20155;-67
2022/04/30 07:08:08;;;;;;;14.27;7.43;;;10.00;70.10;;;;;;5031944;28;20123;-67
2022/04/30 07:10:34;;;;;;;9.57;6.90;;;10.20;69.90;;;;;;5048622;28;20882;-67
2022/04/30 07:12:59;;;;;;;10.43;7.67;;;10.40;69.30;;;;;;5064498;28;20515;-67
2022/04/30 07:15:25;;;;;;;11.63;6.93;;;10.70;68.70;;;;;;5056505;28;20041;-67
2022/04/30 07:17:51;;;;;;;11.47;7.47;;;10.80;68.40;;;;;;5081356;28;20093;-67
2022/04/30 07:20:16;;;;;;;10.63;7.77;;;11.00;67.70;;;;;;5042631;28;20048;-67
2022/04/30 07:22:42;;;;;;;9.97;6.43;;;11.10;67.30;;;;;;5075955;28;20642;-67
2022/04/30 07:25:08;;;;;;;9.43;6.10;;;11.20;66.70;;;;;;5040076;28;20051;-67
2022/04/30 07:27:34;;;;;;;11.77;6.23;;;11.20;66.80;;;;;;5059333;28;20427;-67
2022/04/30 07:29:59;;;;;;;10.23;6.73;;;11.20;66.60;;;;;;5071351;28;20309;-67
2022/04/30 07:32:25;;;;;;;9.37;6.13;;;11.30;66.40;;;;;;5068405;28;20421;-67
2022/04/30 07:34:53;;;;;;;10.77;6.57;;;11.30;66.10;;;;;;5056896;28;20040;-67
2022/04/30 07:37:19;;;;;;;8.48;6.45;;;11.40;66.00;;;;;;5055680;28;20044;-67
2022/04/30 07:39:44;;;;;;;9.00;6.57;;;11.30;65.60;;;;;;5068709;28;20503;-67
2022/04/30 07:42:10;;;;;;;10.87;6.03;;;11.40;66.00;;;;;;5051345;28;20040;-67
2022/04/30 07:44:36;;;;;;;7.80;5.93;;;11.40;65.90;;;;;;5037615;28;20063;-67
2022/04/30 07:47:02;;;;;;;13.57;6.83;;;11.50;65.60;;;;;;5068358;28;20036;-67
2022/04/30 07:49:27;;;;;;;9.50;6.13;;;11.70;65.50;;;;;;5074384;28;20041;-67
2022/04/30 07:51:55;;;;;;;10.17;6.33;;;11.90;65.00;;;;;;5053569;28;20044;-67
2022/04/30 07:54:25;;;;;;;9.40;5.80;;;12.10;63.70;;;;;;5052520;28;20040;-67
2022/04/30 07:56:55;;;;;;;10.43;6.33;;;12.20;63.50;;;;;;5068776;28;20286;-67
2022/04/30 07:59:22;;;;;;;9.23;6.13;;;12.10;63.40;;;;;;5083108;28;20286;-67
2022/04/30 08:01:49;;;;;;;10.37;6.77;;;12.00;63.30;;;;;;5058856;28;20339;-67
2022/04/30 08:04:15;;;;;;;9.00;6.70;;;11.90;62.90;;;;;;5077031;28;20282;-67
2022/04/30 08:06:41;;;;;;;10.93;6.63;;;11.90;63.60;;;;;;5055222;28;20295;-67
2022/04/30 08:09:07;;;;;;;8.17;6.30;;;12.00;64.10;;;;;;5072787;28;20359;-67
2022/04/30 08:11:33;;;;;;;10.40;6.00;;;12.10;63.50;;;;;;5080737;28;20464;-67
2022/04/30 08:13:58;;;;;;;10.87;5.53;;;12.20;63.50;;;;;;5065968;28;20039;-67
2022/04/30 08:16:24;;;;;;;7.20;4.60;;;12.30;62.80;;;;;;5087808;28;20098;-67
2022/04/30 08:18:50;;;;;;;8.53;5.30;;;12.30;61.60;;;;;;5092276;28;20135;-67
2022/04/30 08:21:15;;;;;;;6.67;4.33;;;12.40;61.70;;;;;;5058994;28;20471;-67
2022/04/30 08:23:41;;;;;;;7.80;3.97;;;12.50;61.30;;;;;;5035019;28;20040;-67
2022/04/30 08:26:07;;;;;;;6.77;4.00;;;12.70;60.50;;;;;;5058864;28;20047;-71
2022/04/30 08:28:33;;;;;;;8.33;4.20;;;12.90;59.60;;;;;;5068931;28;20044;-67
2022/04/30 08:30:59;;;;;;;7.23;4.20;;;13.00;58.90;;;;;;5067655;28;20306;-67
2022/04/30 08:33:25;;;;;;;7.70;4.37;;;13.00;58.70;;;;;;5070002;28;20040;-67
2022/04/30 08:35:50;;;;;;;7.10;4.70;;;13.10;59.20;;;;;;5053457;28;20040;-67
2022/04/30 08:38:16;;;;;;;6.80;4.53;;;13.10;57.60;;;;;;5094245;28;20070;-67
2022/04/30 08:40:43;;;;;;;8.60;5.17;;;13.20;57.70;;;;;;5052903;28;20153;-67
2022/04/30 08:43:15;;;;;;;7.37;4.67;;;13.30;58.20;;;;;;5076408;28;20576;-67
2022/04/30 08:45:42;;;;;;;8.33;4.20;;;13.40;57.90;;;;;;5067464;28;20374;-67
2022/04/30 08:48:10;;;;;;;5.90;3.40;;;13.40;57.40;;;;;;5064650;28;20317;-67
2022/04/30 08:50:37;;;;;;;8.50;4.50;;;13.30;56.20;;;;;;5075538;28;20881;-67
2022/04/30 08:53:03;;;;;;;7.30;4.60;;;13.10;56.90;;;;;;5052596;28;20298;-67
2022/04/30 08:55:29;;;;;;;7.70;4.53;;;12.90;57.20;;;;;;5064252;28;20290;-67
2022/04/30 08:57:54;;;;;;;7.97;5.00;;;12.70;58.50;;;;;;5046783;28;20345;-67
2022/04/30 09:00:20;;;;;;;7.20;4.87;;;12.60;58.50;;;;;;5060779;28;20044;-67
2022/04/30 09:03:05;;;;;;;6.83;4.60;;;12.50;59.00;;;;;;5075561;28;20052;-67
2022/04/30 09:05:32;;;;;;;7.80;5.60;;;12.50;59.40;;;;;;5052375;28;20048;-67
2022/04/30 09:07:59;;;;;;;7.77;5.73;;;12.50;59.50;;;;;;5073517;28;20295;-67
2022/04/30 09:10:30;;;;;;;8.60;5.77;;;12.50;59.70;;;;;;5064294;28;20795;-67
2022/04/30 09:13:06;;;;;;;6.63;4.70;;;12.50;59.70;;;;;;5063659;28;20949;-67
2022/04/30 09:15:33;;;;;;;10.77;5.27;;;12.50;59.40;;;;;;5054906;28;20320;-67
2022/04/30 09:18:00;;;;;;;9.07;5.83;;;12.40;59.20;;;;;;5036372;28;20699;-67
2022/04/30 09:20:26;;;;;;;6.97;5.20;;;12.30;59.60;;;;;;5059911;28;20374;-67
2022/04/30 09:22:52;;;;;;;7.23;5.03;;;12.20;60.00;;;;;;5038607;28;20295;-67
2022/04/30 09:25:18;;;;;;;8.33;5.23;;;12.10;60.30;;;;;;5064420;28;20324;-67
2022/04/30 09:27:50;;;;;;;6.70;4.63;;;12.00;60.60;;;;;;5036440;28;20489;-67
2022/04/30 09:30:32;;;;;;;9.67;5.73;;;11.90;60.70;;;;;;5031726;28;20303;-67
2022/04/30 09:33:06;;;;;;;9.63;4.90;;;11.90;60.50;;;;;;5041614;28;20344;-67
2022/04/30 09:38:20;;;;;;;6.80;4.17;;;11.80;60.50;;;;;;5069607;28;20290;-67
2022/04/30 09:40:57;;;;;;;5.03;3.27;;;11.80;60.40;;;;;;5052791;28;20791;-67
2022/04/30 09:43:29;;;;;;;8.97;3.90;;;11.80;59.80;;;;;;5092949;28;20678;-67
2022/04/30 09:45:59;;;;;;;6.43;3.77;;;11.80;60.00;;;;;;5022689;28;20298;-68
2022/04/30 09:53:57;;;;;;;8.60;5.03;;;11.80;62.90;;;;;;5060105;28;20162;-68
2022/04/30 09:56:45;;;;;;;8.27;5.27;;;11.90;63.00;;;;;;5064532;28;20832;-67
2022/04/30 09:59:13;;;;;;;8.30;5.03;;;12.00;64.20;;;;;;5083973;28;20287;-67
2022/04/30 10:01:40;;;;;;;6.83;4.27;;;12.10;64.50;;;;;;5073275;28;20965;-64
2022/04/30 10:04:09;;;;;;;6.13;4.23;;;12.10;63.60;;;;;;5069625;28;20282;-64
2022/04/30 10:06:40;;;;;;;6.67;4.20;;;12.00;63.70;;;;;;5066354;28;20286;-64
2022/04/30 10:09:09;;;;;;;6.80;3.97;;;12.00;63.20;;;;;;5061856;28;20289;-64
2022/04/30 10:12:03;;;;;;;9.70;4.17;;;12.00;63.20;;;;;;5066435;28;20313;-65
2022/04/30 10:14:41;;;;;;;6.63;4.07;;;12.00;62.40;;;;;;5095805;28;20287;-65
2022/04/30 10:17:13;;;;;;;7.13;4.27;;;12.00;62.00;;;;;;5075137;28;20813;-64
2022/04/30 10:20:00;;;;;;;7.60;4.40;;;12.00;61.90;;;;;;5092411;28;20377;-64
2022/04/30 10:22:27;;;;;;;7.93;5.53;;;12.00;62.50;;;;;;5069102;28;20283;-64
2022/04/30 10:24:58;;;;;;;9.40;5.33;;;12.10;62.10;;;;;;5076082;28;20278;-64
2022/04/30 10:27:25;;;;;;;7.77;5.33;;;12.10;61.00;;;;;;5053980;28;20290;-64
2022/04/30 10:29:54;;;;;;;9.13;5.60;;;12.20;61.60;;;;;;5063695;28;20307;-64
2022/04/30 10:32:27;;;;;;;10.13;6.57;;;12.20;61.60;;;;;;5065464;28;20394;-64
2022/04/30 10:34:53;;;;;;;7.47;5.40;;;12.20;61.70;;;;;;5064244;28;20274;-64
2022/04/30 10:37:38;;;;;;;7.73;5.33;;;12.10;61.30;;;;;;5057136;28;20277;-64
2022/04/30 10:40:08;;;;;;;7.47;3.65;;;12.00;60.60;;;;;;5066031;28;20113;-64
2022/04/30 10:42:41;;;;;;;5.57;3.73;;;11.90;59.70;;;;;;5061914;28;20068;-64
2022/04/30 10:45:11;;;;;;;6.37;4.20;;;11.70;59.10;;;;;;5045788;28;20286;-64
2022/04/30 10:47:51;;;;;;;10.30;5.07;;;11.60;58.80;;;;;;5041141;28;20295;-64
2022/04/30 10:50:17;;;;;;;9.10;5.17;;;11.50;59.20;;;;;;5072729;28;20303;-64
2022/04/30 10:52:47;;;;;;;6.63;4.90;;;11.50;59.60;;;;;;5063340;28;20648;-64
2022/04/30 10:55:13;;;;;;;8.20;4.77;;;11.50;59.80;;;;;;5063310;28;20036;-64
2022/04/30 10:57:45;;;;;;;7.33;5.93;;;11.50;59.90;;;;;;5040958;28;20381;-64
2022/04/30 11:00:12;;;;;;;7.83;5.70;;;11.60;60.10;;;;;;5075365;28;20797;-64
2022/04/30 11:02:38;;;;;;;10.87;6.33;;;11.70;60.30;;;;;;5052628;28;20373;-64
2022/04/30 11:05:04;;;;;;;6.00;4.60;;;11.70;60.70;;;;;;5043537;28;20885;-64
2022/04/30 11:07:31;;;;;;;8.90;5.10;;;11.80;60.00;;;;;;5077685;28;20052;-64
2022/04/30 11:09:57;;;;;;;7.33;4.93;;;11.80;59.40;;;;;;5049588;28;20321;-64
2022/04/30 11:12:30;;;;;;;6.30;3.87;;;11.80;59.60;;;;;;5072537;28;20291;-64
2022/04/30 11:14:57;;;;;;;6.13;3.50;;;11.80;59.20;;;;;;5044428;28;20337;-64
2022/04/30 11:17:25;;;;;;;6.57;4.17;;;11.80;58.60;;;;;;5037624;28;20658;-64
2022/04/30 11:19:51;;;;;;;5.40;4.43;;;11.80;58.40;;;;;;5067591;28;20283;-64
2022/04/30 11:22:17;;;;;;;5.10;3.93;;;11.80;58.80;;;;;;5052823;28;20283;-64
2022/04/30 11:24:43;;;;;;;6.40;4.57;;;11.80;58.90;;;;;;5075548;28;20526;-64
2022/04/30 11:27:09;;;;;;;8.67;5.40;;;11.80;59.10;;;;;;5056926;28;20290;-64
2022/04/30 11:29:37;;;;;;;8.33;5.10;;;11.90;60.40;;;;;;5041227;28;20124;-64
2022/04/30 11:32:04;;;;;;;8.83;5.17;;;12.00;60.40;;;;;;5061416;28;20286;-64
2022/04/30 11:34:30;;;;;;;7.90;4.50;;;12.10;60.90;;;;;;5043006;28;20287;-64
2022/04/30 11:37:00;;;;;;;7.97;4.67;;;12.20;60.80;;;;;;5058529;28;20275;-65
2022/04/30 11:39:27;;;;;;;6.97;3.70;;;12.30;60.70;;;;;;5057834;28;20442;-64
2022/04/30 11:41:55;;;;;;;5.57;3.73;;;12.30;60.60;;;;;;5050667;28;20793;-64
2022/04/30 11:44:30;;;;;;;7.60;4.70;;;12.30;59.80;;;;;;5041130;28;20321;-64
2022/04/30 11:46:56;;;;;;;;;;;12.50;59.90;;;;;;5049932;28;20299;-64
2022/04/30 11:49:26;;;;;;;6.50;3.53;;;12.60;58.60;;;;;;5070388;28;19978;-64
2022/04/30 11:51:56;;;;;;;6.13;3.83;;;12.70;59.40;;;;;;5065689;28;20055;-64
2022/04/30 11:54:27;;;;;;;5.13;3.97;;;12.90;58.90;;;;;;5096618;28;20293;-64
2022/04/30 11:56:53;;;;;;;6.00;3.70;;;13.10;58.50;;;;;;5061041;28;20294;-64
2022/04/30 11:59:40;;;;;;;6.17;3.70;;;13.30;57.60;;;;;;5094039;28;20337;-64
2022/04/30 12:02:10;;;;;;;7.80;3.83;;;13.40;56.20;;;;;;5061449;28;20469;-64
2022/04/30 12:04:41;;;;;;;7.73;4.27;;;13.50;56.20;;;;;;5095560;28;20287;-64
2022/04/30 12:07:08;;;;;;;8.10;4.87;;;13.50;55.80;;;;;;5097330;28;20319;-64
2022/04/30 12:09:38;;;;;;;5.87;4.50;;;13.50;56.00;;;;;;5058484;28;20290;-64
2022/04/30 12:12:24;;;;;;;9.20;5.10;;;13.60;56.40;;;;;;5057019;28;20290;-64
2022/04/30 12:14:51;;;;;;;8.03;6.10;;;13.70;55.90;;;;;;5070415;28;20282;-64
2022/04/30 12:17:17;;;;;;;10.53;6.40;;;13.60;56.50;;;;;;5063381;28;20283;-64
2022/04/30 12:25:16;;;;;;;7.90;5.33;;;13.50;56.90;;;;;;5063566;28;20041;-64
2022/04/30 12:27:56;;;;;;;7.63;4.63;;;13.40;56.40;;;;;;5066496;28;20301;-64
2022/04/30 12:30:23;;;;;;;6.10;4.77;;;13.40;55.10;;;;;;5065234;28;20356;-64
2022/04/30 12:33:05;;;;;;;6.27;4.27;;;13.40;55.20;;;;;;5063071;28;20294;-64
2022/04/30 12:35:38;;;;;;;6.37;4.43;;;13.40;54.40;;;;;;5066295;28;20643;-64
2022/04/30 12:38:08;;;;;;;5.33;3.47;;;13.50;54.80;;;;;;5050752;28;20826;-64
2022/04/30 12:40:35;;;;;;;6.03;3.60;;;13.60;53.80;;;;;;5058733;28;20281;-64
2022/04/30 12:43:03;;;;;;;3.73;3.17;;;13.60;52.80;;;;;;5057803;28;20811;-64
2022/04/30 12:45:29;;;;;;;5.23;3.23;;;13.70;53.00;;;;;;5071913;28;20798;-64
2022/04/30 12:47:54;;;;;;;5.43;2.90;;;13.80;52.70;;;;;;5072421;28;20779;-64
2022/04/30 12:50:21;;;;;;;3.10;2.00;;;13.90;52.10;;;;;;5074506;28;20719;-64
2022/04/30 12:52:47;;;;;;;2.80;2.03;;;14.00;51.20;;;;;;5083495;28;20136;-64
2022/04/30 12:55:14;;;;;;;4.03;2.33;;;14.00;51.10;;;;;;5053407;28;20810;-64
2022/04/30 12:57:40;;;;;;;4.20;2.00;;;14.10;51.60;;;;;;5098876;28;20915;-64
2022/04/30 13:00:06;;;;;;;3.73;2.10;;;14.20;51.30;;;;;;5034792;28;20303;-64
2022/04/30 13:02:32;;;;;;;3.80;1.87;;;14.20;50.80;;;;;;5063234;28;20048;-64
2022/04/30 13:04:58;;;;;;;3.90;2.40;;;14.30;50.70;;;;;;5065086;28;20301;-64
2022/04/30 13:07:24;;;;;;;5.63;3.00;;;14.30;50.50;;;;;;5041951;28;20560;-64
2022/04/30 13:15:18;;;;;;;3.90;2.70;;;14.50;49.60;;;;;;5058245;28;20322;-64
2022/04/30 13:17:44;;;;;;;4.87;3.60;;;14.40;49.30;;;;;;5044826;28;20306;-64
2022/04/30 13:20:11;;;;;;;6.00;3.77;;;14.40;49.60;;;;;;5070885;28;20432;-64
2022/04/30 13:22:37;;;;;;;7.47;4.20;;;14.40;50.00;;;;;;5065332;28;20809;-64
2022/04/30 13:25:04;;;;;;;8.07;4.53;;;14.40;49.60;;;;;;5066976;28;20318;-64
2022/04/30 13:27:31;;;;;;;6.93;4.00;;;14.30;50.20;;;;;;5049918;28;20643;-64
2022/04/30 13:29:57;;;;;;;8.10;4.63;;;14.30;50.60;;;;;;5047847;28;20393;-64
2022/04/30 13:32:23;;;;;;;7.03;4.77;;;14.30;51.00;;;;;;5061827;28;20373;-64
2022/04/30 13:34:48;;;;;;;7.90;5.20;;;14.20;51.30;;;;;;5083175;28;20048;-64
2022/04/30 13:37:14;;;;;;;7.43;5.50;;;14.20;51.70;;;;;;5055161;28;20397;-64
2022/04/30 13:39:40;;;;;;;7.43;5.53;;;14.20;52.10;;;;;;5051389;28;20044;-64